Time;durP1;ratioP1;P1;durP2;ratioP2;P2;SDS_P1;SDS_P2;PMS_P1;PMS_P2;Temp;Humidity;BMP_temperature;BMP_pressure;BME280_temperature;BME280_humidity;BME280_pressure;Samples;Min_cycle;Max_cycle;Signal;HPM_P1;HPM_P2
2022/01/04 00:01:07;;;;;;;3.78;1.27;;;9.80;99.90;;;;;;4161430;28;20117;-67
2022/01/04 00:03:08;;;;;;;3.17;1.17;;;9.80;99.90;;;;;;4162485;28;20088;-67
2022/01/04 00:05:10;;;;;;;3.00;1.00;;;9.80;99.90;;;;;;4162133;28;20172;-67
2022/01/04 00:07:10;;;;;;;1.88;1.05;;;9.70;99.90;;;;;;4160859;28;20049;-67
2022/01/04 00:09:12;;;;;;;3.17;1.25;;;9.70;99.90;;;;;;4161022;28;20051;-67
2022/01/04 00:11:19;;;;;;;0.98;0.70;;;9.60;99.90;;;;;;4159510;28;20084;-67
2022/01/04 00:13:23;;;;;;;1.40;0.70;;;9.60;99.90;;;;;;4162933;28;20044;-66
2022/01/04 00:15:24;;;;;;;1.55;0.80;;;9.60;99.90;;;;;;4160563;28;20045;-67
2022/01/04 00:17:25;;;;;;;2.03;0.90;;;9.60;99.90;;;;;;4163147;28;20126;-67
2022/01/04 00:19:25;;;;;;;1.83;1.00;;;9.60;99.90;;;;;;4160889;28;20099;-67
2022/01/04 00:21:26;;;;;;;1.83;0.80;;;9.60;99.90;;;;;;4162110;28;20037;-67
2022/01/04 00:23:27;;;;;;;1.65;0.75;;;9.60;99.90;;;;;;4159555;28;20042;-67
2022/01/04 00:25:27;;;;;;;1.33;0.70;;;9.60;99.90;;;;;;4161521;28;20044;-67
2022/01/04 00:27:28;;;;;;;1.45;0.52;;;9.50;99.90;;;;;;4160693;28;20036;-67
2022/01/04 00:29:28;;;;;;;2.47;1.00;;;9.60;99.90;;;;;;4162209;28;20049;-67
2022/01/04 00:31:29;;;;;;;0.90;0.63;;;9.50;99.90;;;;;;4159296;28;20037;-67
2022/01/04 00:33:30;;;;;;;2.35;0.80;;;9.50;99.90;;;;;;4162555;28;20423;-66
2022/01/04 00:35:30;;;;;;;1.40;0.88;;;9.50;99.90;;;;;;4159418;28;20085;-67
2022/01/04 00:37:31;;;;;;;2.35;0.93;;;9.60;99.90;;;;;;4161838;28;20068;-67
2022/01/04 00:39:31;;;;;;;1.98;1.00;;;9.50;99.90;;;;;;4162696;28;20088;-67
2022/01/04 00:41:32;;;;;;;1.13;0.70;;;9.40;99.90;;;;;;4161027;28;20034;-67
2022/01/04 00:43:33;;;;;;;1.83;1.02;;;9.40;99.90;;;;;;4160624;28;20037;-67
2022/01/04 00:45:36;;;;;;;3.45;0.85;;;9.40;99.90;;;;;;4161693;28;20033;-67
2022/01/04 00:50:01;;;;;;;2.05;0.93;;;9.40;99.90;;;;;;4133196;28;20095;-66
2022/01/04 00:52:01;;;;;;;1.60;0.95;;;9.40;99.90;;;;;;4158753;28;20042;-66
2022/01/04 00:54:03;;;;;;;3.33;1.08;;;9.30;99.90;;;;;;4161896;28;20033;-66
2022/01/04 00:56:04;;;;;;;2.30;1.00;;;9.30;99.90;;;;;;4159651;28;20034;-66
2022/01/04 00:58:05;;;;;;;3.50;0.93;;;9.30;99.90;;;;;;4158881;28;20041;-66
2022/01/04 01:00:07;;;;;;;2.58;1.13;;;9.30;99.90;;;;;;4161550;28;20033;-68
2022/01/04 01:02:08;;;;;;;2.88;1.40;;;9.20;99.90;;;;;;4160142;28;20393;-67
2022/01/04 01:04:09;;;;;;;2.65;1.30;;;9.20;99.90;;;;;;4160221;28;20133;-67
2022/01/04 01:06:10;;;;;;;1.80;0.93;;;9.30;99.90;;;;;;4160520;28;20044;-67
2022/01/04 01:08:11;;;;;;;1.70;1.08;;;9.30;99.90;;;;;;4160675;28;20050;-67
2022/01/04 01:12:34;;;;;;;3.20;1.50;;;9.30;99.90;;;;;;4160937;28;20510;-67
2022/01/04 01:14:34;;;;;;;1.45;1.10;;;9.30;99.90;;;;;;4161000;28;20037;-67
2022/01/04 01:16:35;;;;;;;1.13;0.90;;;9.30;99.90;;;;;;4160302;28;20038;-67
2022/01/04 01:18:36;;;;;;;1.27;0.90;;;9.30;99.90;;;;;;4160092;28;20125;-67
2022/01/04 01:20:37;;;;;;;1.83;1.00;;;9.30;99.90;;;;;;4161394;28;20030;-67
2022/01/04 01:22:38;;;;;;;2.45;1.13;;;9.30;99.90;;;;;;4158671;28;20088;-67
2022/01/04 01:24:38;;;;;;;1.60;1.05;;;9.30;99.90;;;;;;4159159;28;20067;-67
2022/01/04 01:26:39;;;;;;;2.65;1.10;;;9.30;99.90;;;;;;4159144;28;20037;-67
2022/01/04 01:28:40;;;;;;;1.70;1.00;;;9.30;99.90;;;;;;4161034;28;20572;-67
2022/01/04 01:30:43;;;;;;;2.17;0.82;;;9.30;99.90;;;;;;4160328;28;20037;-67
2022/01/04 01:32:44;;;;;;;2.17;0.90;;;9.30;99.90;;;;;;4161076;28;20038;-67
2022/01/04 01:34:45;;;;;;;5.20;1.20;;;9.30;99.90;;;;;;4158181;28;20133;-67
2022/01/04 01:36:46;;;;;;;1.60;0.93;;;9.20;99.90;;;;;;4158614;28;20862;-67
2022/01/04 01:38:46;;;;;;;1.55;1.00;;;9.20;99.90;;;;;;4161096;28;20472;-67
2022/01/04 01:40:49;;;;;;;2.17;1.20;;;9.20;99.90;;;;;;4160549;28;20034;-67
2022/01/04 01:42:49;;;;;;;2.08;1.08;;;9.20;99.90;;;;;;4159588;28;20034;-67
2022/01/04 01:44:51;;;;;;;4.07;1.35;;;9.20;99.90;;;;;;4159818;28;20092;-67
2022/01/04 01:46:51;;;;;;;1.50;0.85;;;9.20;99.90;;;;;;4161026;28;20083;-67
2022/01/04 01:48:52;;;;;;;2.20;1.40;;;9.20;99.90;;;;;;4159367;28;20092;-67
2022/01/04 01:50:53;;;;;;;1.70;1.38;;;9.20;99.90;;;;;;4161511;28;20431;-67
2022/01/04 01:52:55;;;;;;;2.65;1.40;;;9.20;99.90;;;;;;4160103;28;20079;-67
2022/01/04 01:54:56;;;;;;;2.50;1.40;;;9.20;99.90;;;;;;4156282;28;20050;-67
2022/01/04 01:56:56;;;;;;;2.17;1.05;;;9.20;99.90;;;;;;4161320;28;20056;-67
2022/01/04 01:58:58;;;;;;;2.72;1.55;;;9.20;99.90;;;;;;4162618;28;20094;-66
2022/01/04 02:00:58;;;;;;;2.83;1.40;;;9.20;99.90;;;;;;4161713;28;20362;-67
2022/01/04 02:03:01;;;;;;;2.95;1.45;;;9.20;99.90;;;;;;4162105;28;20075;-67
2022/01/04 02:05:02;;;;;;;1.98;1.20;;;9.20;99.90;;;;;;4162473;28;20033;-66
2022/01/04 02:07:03;;;;;;;2.85;1.58;;;9.20;99.90;;;;;;4162317;28;20061;-66
2022/01/04 02:09:04;;;;;;;3.63;1.52;;;9.20;99.90;;;;;;4165420;28;20049;-67
2022/01/04 02:11:05;;;;;;;1.98;1.50;;;9.20;99.90;;;;;;4164211;28;20121;-66
2022/01/04 02:13:06;;;;;;;2.58;1.63;;;9.20;99.90;;;;;;4164897;28;20083;-68
2022/01/04 02:15:09;;;;;;;3.15;1.50;;;9.20;99.90;;;;;;4164851;28;20447;-67
2022/01/04 02:17:10;;;;;;;2.83;1.67;;;9.20;99.90;;;;;;4164951;28;20034;-67
2022/01/04 02:19:11;;;;;;;3.97;1.88;;;9.20;99.90;;;;;;4165239;28;20153;-67
2022/01/04 02:21:11;;;;;;;2.20;1.40;;;9.20;99.90;;;;;;4164496;28;20400;-67
2022/01/04 02:23:12;;;;;;;2.08;1.40;;;9.20;99.90;;;;;;4164160;28;20453;-67
2022/01/04 02:25:13;;;;;;;3.78;1.48;;;9.20;99.90;;;;;;4164229;28;20041;-67
2022/01/04 02:27:14;;;;;;;3.03;1.58;;;9.20;99.90;;;;;;4165021;28;20512;-67
2022/01/04 02:29:15;;;;;;;4.30;1.88;;;9.20;99.90;;;;;;4164519;28;20049;-67
2022/01/04 02:31:16;;;;;;;1.65;1.30;;;9.20;99.90;;;;;;4162803;28;20057;-67
2022/01/04 02:33:16;;;;;;;2.10;1.40;;;9.20;99.90;;;;;;4164544;28;20401;-67
2022/01/04 02:35:20;;;;;;;2.45;1.55;;;9.20;99.90;;;;;;4160860;28;20087;-67
2022/01/04 02:37:22;;;;;;;3.67;1.48;;;9.20;99.90;;;;;;4164357;28;20237;-67
2022/01/04 02:39:23;;;;;;;6.35;1.95;;;9.10;99.90;;;;;;4163096;28;20087;-67
2022/01/04 02:41:23;;;;;;;4.50;1.48;;;9.20;99.90;;;;;;4163147;28;20037;-67
2022/01/04 02:43:24;;;;;;;2.85;1.77;;;9.20;99.90;;;;;;4164467;28;20445;-67
2022/01/04 02:45:24;;;;;;;2.47;1.70;;;9.20;99.90;;;;;;4163828;28;20033;-67
2022/01/04 02:47:25;;;;;;;2.47;1.30;;;9.20;99.90;;;;;;4164773;28;20065;-67
2022/01/04 02:49:26;;;;;;;2.05;1.45;;;9.20;99.90;;;;;;4164199;28;20053;-67
2022/01/04 02:51:26;;;;;;;1.42;1.25;;;9.20;99.90;;;;;;4164135;28;20042;-67
2022/01/04 02:53:27;;;;;;;4.10;1.92;;;9.20;99.90;;;;;;4161860;28;20033;-67
2022/01/04 02:55:27;;;;;;;3.33;1.92;;;9.20;99.90;;;;;;4159060;28;20037;-67
2022/01/04 02:57:28;;;;;;;2.25;1.75;;;9.20;99.90;;;;;;4164450;28;20037;-67
2022/01/04 02:59:29;;;;;;;3.20;2.00;;;9.20;99.90;;;;;;4161327;28;20416;-67
2022/01/04 03:01:33;;;;;;;3.30;2.05;;;9.20;99.90;;;;;;4163739;28;20034;-67
2022/01/04 03:03:34;;;;;;;3.90;2.00;;;9.30;99.90;;;;;;4164558;28;20044;-67
2022/01/04 03:05:34;;;;;;;4.22;2.10;;;9.30;99.90;;;;;;4163595;28;20061;-67
2022/01/04 03:07:35;;;;;;;3.78;2.13;;;9.20;99.90;;;;;;4163472;28;20477;-67
2022/01/04 03:09:36;;;;;;;3.65;2.20;;;9.20;99.90;;;;;;4164439;28;20057;-67
2022/01/04 03:11:36;;;;;;;4.82;2.30;;;9.20;99.90;;;;;;4160683;28;20480;-67
2022/01/04 03:13:37;;;;;;;6.63;3.35;;;9.20;99.90;;;;;;4164222;28;20103;-67
2022/01/04 03:15:37;;;;;;;5.38;3.03;;;9.20;99.90;;;;;;4161026;28;20034;-67
2022/01/04 03:17:38;;;;;;;4.45;2.60;;;9.10;99.90;;;;;;4161067;28;20041;-68
2022/01/04 03:19:39;;;;;;;5.50;2.72;;;9.10;99.90;;;;;;4161448;28;20052;-67
2022/01/04 03:21:42;;;;;;;4.60;3.05;;;9.10;99.90;;;;;;4163153;28;20501;-67
2022/01/04 03:23:42;;;;;;;4.38;2.60;;;9.10;99.90;;;;;;4162143;28;20037;-67
2022/01/04 03:25:43;;;;;;;5.60;3.22;;;9.00;99.90;;;;;;4159400;28;20127;-67
2022/01/04 03:27:44;;;;;;;3.80;2.40;;;9.00;99.90;;;;;;4164378;28;20113;-67
2022/01/04 03:29:44;;;;;;;3.65;2.35;;;9.10;99.90;;;;;;4164326;28;20057;-67
2022/01/04 03:31:45;;;;;;;4.95;2.70;;;9.10;99.90;;;;;;4163385;28;20124;-67
2022/01/04 03:33:46;;;;;;;5.35;2.90;;;9.10;99.90;;;;;;4163917;28;20364;-67
2022/01/04 03:35:46;;;;;;;4.72;2.95;;;9.10;99.90;;;;;;4159558;28;20044;-67
2022/01/04 03:37:47;;;;;;;5.53;3.00;;;9.10;99.90;;;;;;4164152;28;20038;-67
2022/01/04 03:39:48;;;;;;;4.82;2.67;;;9.10;99.90;;;;;;4163719;28;20080;-67
2022/01/04 03:41:50;;;;;;;3.33;2.28;;;9.10;99.90;;;;;;4162555;28;20037;-67
2022/01/04 03:43:51;;;;;;;5.95;2.83;;;9.20;99.90;;;;;;4152301;28;20131;-67
2022/01/04 03:45:51;;;;;;;5.55;3.13;;;9.20;99.90;;;;;;4162353;28;20391;-67
2022/01/04 03:47:52;;;;;;;4.78;2.63;;;9.10;99.90;;;;;;4163962;28;20037;-67
2022/01/04 03:49:53;;;;;;;4.95;3.13;;;9.20;99.90;;;;;;4163628;28;20049;-67
2022/01/04 03:51:53;;;;;;;5.15;3.17;;;9.20;99.90;;;;;;4163240;28;20034;-67
2022/01/04 03:53:54;;;;;;;5.57;2.90;;;9.20;99.90;;;;;;4163834;28;20461;-67
2022/01/04 03:55:55;;;;;;;4.03;2.88;;;9.10;99.90;;;;;;4159581;28;20046;-67
2022/01/04 03:57:56;;;;;;;5.15;3.42;;;9.10;99.90;;;;;;4163539;28;20036;-67
2022/01/04 03:59:56;;;;;;;4.35;3.00;;;9.10;99.90;;;;;;4163674;28;21631;-67
2022/01/04 04:01:57;;;;;;;4.13;2.72;;;9.20;99.90;;;;;;4161607;28;20485;-67
2022/01/04 04:03:57;;;;;;;3.00;2.70;;;9.10;99.90;;;;;;4162408;28;20076;-67
2022/01/04 04:05:59;;;;;;;6.20;3.50;;;9.10;99.90;;;;;;4161724;28;20378;-67
2022/01/04 04:07:59;;;;;;;4.32;3.15;;;9.20;99.90;;;;;;4162988;28;20064;-67
2022/01/04 04:10:00;;;;;;;5.55;3.10;;;9.20;99.90;;;;;;4163659;28;20045;-67
2022/01/04 04:12:02;;;;;;;5.07;2.80;;;9.10;99.90;;;;;;4161954;28;20076;-67
2022/01/04 04:14:02;;;;;;;4.82;3.63;;;9.10;99.90;;;;;;4163503;28;20057;-67
2022/01/04 04:16:03;;;;;;;6.35;4.03;;;9.10;99.90;;;;;;4161580;28;20481;-67
2022/01/04 04:18:04;;;;;;;6.40;4.22;;;9.10;99.90;;;;;;4159257;28;20104;-67
2022/01/04 04:20:05;;;;;;;5.72;4.18;;;9.10;99.90;;;;;;4163142;28;20128;-68
2022/01/04 04:22:06;;;;;;;7.88;4.60;;;9.10;99.90;;;;;;4163035;28;20034;-67
2022/01/04 04:24:07;;;;;;;6.43;4.13;;;9.10;99.90;;;;;;4160270;28;20048;-67
2022/01/04 04:26:07;;;;;;;8.55;5.15;;;9.10;99.90;;;;;;4159224;28;20088;-67
2022/01/04 04:28:08;;;;;;;8.73;5.25;;;9.10;99.90;;;;;;4159728;28;20033;-68
2022/01/04 04:30:10;;;;;;;7.18;4.93;;;9.10;99.90;;;;;;4162791;28;20048;-67
2022/01/04 04:32:11;;;;;;;10.13;5.40;;;9.10;99.90;;;;;;4159452;28;20038;-67
2022/01/04 04:34:11;;;;;;;9.23;5.10;;;9.10;99.90;;;;;;4161910;28;20091;-67
2022/01/04 04:36:12;;;;;;;6.30;4.90;;;9.10;99.90;;;;;;4162120;28;20507;-67
2022/01/04 04:38:12;;;;;;;8.63;5.40;;;9.10;99.90;;;;;;4163140;28;20041;-67
2022/01/04 04:40:13;;;;;;;9.35;4.93;;;9.00;99.90;;;;;;4159139;28;20079;-67
2022/01/04 04:42:14;;;;;;;6.80;4.97;;;9.10;99.90;;;;;;4162907;28;20635;-67
2022/01/04 04:44:14;;;;;;;6.60;4.93;;;9.10;99.90;;;;;;4158510;28;20420;-67
2022/01/04 04:46:15;;;;;;;7.70;4.85;;;9.10;99.90;;;;;;4160046;28;20045;-67
2022/01/04 04:48:16;;;;;;;5.70;4.18;;;9.10;99.90;;;;;;4162798;28;20053;-67
2022/01/04 04:50:16;;;;;;;7.13;4.30;;;9.10;99.90;;;;;;4160120;28;20467;-67
2022/01/04 04:52:17;;;;;;;7.53;3.90;;;9.20;99.90;;;;;;4161303;28;20038;-67
2022/01/04 04:54:18;;;;;;;4.97;3.45;;;9.20;99.90;;;;;;4162833;28;20041;-67
2022/01/04 04:56:18;;;;;;;4.40;3.30;;;9.20;99.90;;;;;;4161036;28;20137;-67
2022/01/04 04:58:19;;;;;;;5.50;3.40;;;9.10;99.90;;;;;;4162889;28;20103;-67
2022/01/04 05:00:19;;;;;;;3.40;2.85;;;9.10;99.90;;;;;;4162056;28;20045;-67
2022/01/04 05:02:20;;;;;;;4.38;3.25;;;9.10;99.90;;;;;;4160450;28;20507;-67
2022/01/04 05:04:20;;;;;;;5.03;3.25;;;9.20;99.90;;;;;;4157882;28;20057;-67
2022/01/04 05:06:21;;;;;;;4.30;3.20;;;9.10;99.90;;;;;;4158011;28;20041;-67
2022/01/04 05:08:22;;;;;;;3.20;2.55;;;9.10;99.90;;;;;;4161428;28;20030;-66
2022/01/04 05:10:22;;;;;;;4.28;3.25;;;9.10;99.90;;;;;;4160048;28;20050;-67
2022/01/04 05:12:23;;;;;;;4.97;3.42;;;9.20;99.90;;;;;;4157431;28;20033;-67
2022/01/04 05:14:23;;;;;;;4.18;3.20;;;9.10;99.90;;;;;;4160289;28;20061;-67
2022/01/04 05:16:24;;;;;;;3.55;3.13;;;9.10;99.90;;;;;;4161877;28;20033;-67
2022/01/04 05:18:25;;;;;;;4.13;3.25;;;9.10;99.90;;;;;;4162172;28;20049;-67
2022/01/04 05:20:25;;;;;;;4.50;2.92;;;9.10;99.90;;;;;;4159217;28;20043;-67
2022/01/04 05:22:26;;;;;;;9.30;4.00;;;9.10;99.90;;;;;;4161735;28;20044;-67
2022/01/04 05:24:27;;;;;;;4.78;2.97;;;9.10;99.90;;;;;;4162487;28;20042;-67
2022/01/04 05:26:27;;;;;;;3.75;3.17;;;9.00;99.90;;;;;;4159889;28;20042;-67
2022/01/04 05:28:28;;;;;;;6.18;3.60;;;9.10;99.90;;;;;;4161761;28;20041;-67
2022/01/04 05:30:29;;;;;;;6.10;4.20;;;9.00;99.90;;;;;;4161594;28;20048;-67
2022/01/04 05:32:29;;;;;;;7.28;4.30;;;9.00;99.90;;;;;;4156769;28;20061;-67
2022/01/04 05:34:30;;;;;;;7.20;4.00;;;9.00;99.90;;;;;;4161250;28;20488;-67
2022/01/04 05:36:31;;;;;;;5.63;4.07;;;9.00;99.90;;;;;;4160879;28;20172;-68
2022/01/04 05:38:32;;;;;;;5.57;3.80;;;9.00;99.90;;;;;;4162353;28;20061;-68
2022/01/04 05:40:32;;;;;;;6.70;4.20;;;9.00;99.90;;;;;;4159889;28;20034;-68
2022/01/04 05:42:33;;;;;;;6.05;4.05;;;9.00;99.90;;;;;;4162074;28;20046;-66
2022/01/04 05:44:34;;;;;;;5.65;3.90;;;9.00;99.90;;;;;;4163128;28;20037;-66
2022/01/04 05:46:35;;;;;;;5.05;3.85;;;9.00;99.90;;;;;;4163635;28;20124;-67
2022/01/04 05:48:36;;;;;;;8.85;4.88;;;9.00;99.90;;;;;;4165871;28;20038;-67
2022/01/04 05:50:38;;;;;;;4.50;3.58;;;8.90;99.90;;;;;;4164330;28;20044;-67
2022/01/04 05:52:38;;;;;;;6.90;4.10;;;9.00;99.90;;;;;;4164675;28;20033;-68
2022/01/04 05:54:41;;;;;;;5.63;3.88;;;9.00;99.90;;;;;;4164855;28;20526;-67
2022/01/04 05:56:42;;;;;;;7.00;4.72;;;9.00;99.90;;;;;;4164685;28;20045;-67
2022/01/04 05:58:43;;;;;;;7.28;4.63;;;9.00;99.90;;;;;;4161388;28;20048;-67
2022/01/04 06:00:43;;;;;;;6.63;4.10;;;9.10;99.90;;;;;;4162723;28;20038;-67
2022/01/04 06:02:44;;;;;;;6.40;4.22;;;9.10;99.90;;;;;;4164953;28;20091;-67
2022/01/04 06:04:45;;;;;;;6.55;4.63;;;9.10;99.90;;;;;;4165375;28;20041;-67
2022/01/04 06:06:46;;;;;;;6.90;4.60;;;9.10;99.90;;;;;;4163627;28;20083;-67
2022/01/04 06:08:48;;;;;;;6.68;4.07;;;9.10;99.90;;;;;;4161222;28;20048;-67
2022/01/04 06:10:51;;;;;;;8.38;4.65;;;9.00;99.90;;;;;;4142674;28;20035;-67
2022/01/04 06:14:54;;;;;;;8.18;4.60;;;9.00;99.90;;;;;;4164957;28;20088;-67
2022/01/04 06:16:55;;;;;;;;;;;9.10;99.90;;;;;;4164313;28;20476;-67
2022/01/04 06:18:56;;;;;;;10.18;5.72;;;9.10;99.90;;;;;;4170740;28;20039;-67
2022/01/04 06:20:56;;;;;;;11.00;5.65;;;9.10;99.90;;;;;;4164955;28;20041;-67
2022/01/04 06:22:57;;;;;;;7.57;4.90;;;9.10;99.90;;;;;;4166366;28;20041;-67
2022/01/04 06:24:58;;;;;;;11.32;5.95;;;9.10;99.90;;;;;;4167504;28;20032;-67
2022/01/04 06:26:59;;;;;;;9.43;5.57;;;9.00;99.90;;;;;;4164941;28;20040;-67
2022/01/04 06:29:00;;;;;;;9.52;6.00;;;9.00;99.90;;;;;;4170472;28;20123;-67
2022/01/04 06:31:00;;;;;;;7.53;4.72;;;9.00;99.90;;;;;;4162762;28;20042;-67
2022/01/04 06:33:01;;;;;;;8.50;5.43;;;9.10;99.90;;;;;;4168584;28;20037;-67
2022/01/04 06:35:03;;;;;;;9.50;5.63;;;9.10;99.90;;;;;;4168881;28;20045;-67
2022/01/04 06:37:05;;;;;;;8.30;4.93;;;9.10;99.90;;;;;;4165670;28;20091;-67
2022/01/04 06:39:06;;;;;;;8.63;5.75;;;9.10;99.90;;;;;;4168595;28;20037;-67
2022/01/04 06:41:06;;;;;;;8.00;5.38;;;9.10;99.90;;;;;;4164231;28;20038;-67
2022/01/04 06:43:07;;;;;;;8.55;5.32;;;9.20;99.90;;;;;;4166115;28;20500;-67
2022/01/04 06:45:08;;;;;;;9.00;5.68;;;9.10;99.90;;;;;;4167140;28;20141;-68
2022/01/04 06:47:10;;;;;;;8.50;5.70;;;9.10;99.90;;;;;;4163895;28;20141;-67
2022/01/04 06:49:15;;;;;;;9.88;5.43;;;9.20;99.90;;;;;;4167296;28;20068;-67
2022/01/04 06:51:16;;;;;;;9.57;6.40;;;9.20;99.90;;;;;;4165048;28;20065;-67
2022/01/04 06:53:17;;;;;;;8.98;6.32;;;9.20;99.90;;;;;;4164545;28;20160;-67
2022/01/04 06:55:17;;;;;;;11.45;6.88;;;9.20;99.90;;;;;;4166244;28;20171;-67
2022/01/04 06:57:18;;;;;;;9.60;6.55;;;9.20;99.90;;;;;;4170623;28;20045;-67
2022/01/04 06:59:19;;;;;;;8.50;6.22;;;9.10;99.90;;;;;;4169317;28;20439;-67
2022/01/04 07:01:19;;;;;;;8.13;5.68;;;9.20;99.90;;;;;;4165211;28;20052;-67
2022/01/04 07:03:20;;;;;;;7.45;5.40;;;9.20;99.90;;;;;;4167028;28;20068;-67
2022/01/04 07:05:20;;;;;;;8.77;5.63;;;9.20;99.90;;;;;;4163504;28;20060;-67
2022/01/04 07:07:23;;;;;;;9.13;5.65;;;9.20;99.90;;;;;;4164664;28;20057;-67
2022/01/04 07:09:24;;;;;;;9.07;5.85;;;9.20;99.90;;;;;;4167050;28;20033;-67
2022/01/04 07:11:24;;;;;;;8.57;5.35;;;9.20;99.90;;;;;;4167276;28;20083;-67
2022/01/04 07:13:25;;;;;;;8.50;5.30;;;9.20;99.90;;;;;;4169004;28;20392;-67
2022/01/04 07:15:26;;;;;;;7.45;4.95;;;9.20;99.90;;;;;;4165286;28;20073;-67
2022/01/04 07:17:26;;;;;;;7.93;5.13;;;9.20;99.90;;;;;;4164863;28;20037;-67
2022/01/04 07:19:27;;;;;;;7.63;4.80;;;9.20;99.90;;;;;;4164353;28;20034;-67
2022/01/04 07:21:27;;;;;;;7.45;4.32;;;9.20;99.90;;;;;;4165794;28;20084;-67
2022/01/04 07:23:28;;;;;;;8.15;4.72;;;9.20;99.90;;;;;;4165727;28;20033;-67
2022/01/04 07:25:29;;;;;;;6.65;4.03;;;9.20;99.90;;;;;;4162683;28;20030;-67
2022/01/04 07:27:30;;;;;;;6.78;4.85;;;9.20;99.90;;;;;;4165170;28;20054;-66
2022/01/04 07:29:30;;;;;;;7.88;4.70;;;9.20;99.90;;;;;;4163836;28;20148;-67
2022/01/04 07:31:32;;;;;;;5.95;4.03;;;9.20;99.90;;;;;;4158526;28;20038;-67
2022/01/04 07:33:33;;;;;;;6.07;4.32;;;9.20;99.90;;;;;;4164530;28;20526;-67
2022/01/04 07:35:34;;;;;;;7.85;4.95;;;9.20;99.90;;;;;;4162468;28;20061;-67
2022/01/04 07:37:35;;;;;;;6.53;4.35;;;9.20;99.90;;;;;;4164081;28;20045;-67
2022/01/04 07:39:35;;;;;;;5.32;3.85;;;9.20;99.90;;;;;;4166129;28;20072;-66
2022/01/04 07:41:36;;;;;;;8.75;5.10;;;9.20;99.90;;;;;;4165183;28;20383;-66
2022/01/04 07:43:37;;;;;;;7.90;4.60;;;9.10;99.90;;;;;;4167658;28;20076;-66
2022/01/04 07:45:38;;;;;;;6.90;4.88;;;9.00;99.90;;;;;;4166203;28;20092;-66
2022/01/04 07:47:41;;;;;;;6.05;4.43;;;9.00;99.90;;;;;;4165344;28;20534;-66
2022/01/04 07:49:41;;;;;;;6.82;4.38;;;8.90;99.90;;;;;;4146031;28;20120;-67
2022/01/04 07:51:42;;;;;;;9.27;4.85;;;8.90;99.90;;;;;;4162001;28;20396;-66
2022/01/04 07:53:45;;;;;;;5.90;4.07;;;8.80;99.90;;;;;;4156035;28;20109;-66
2022/01/04 07:55:46;;;;;;;5.38;4.32;;;8.80;99.90;;;;;;4147478;28;20487;-66
2022/01/04 07:57:47;;;;;;;6.13;4.60;;;8.70;99.90;;;;;;4165463;28;20029;-67
2022/01/04 07:59:47;;;;;;;6.68;4.40;;;8.80;99.90;;;;;;4149189;28;20485;-66
2022/01/04 08:01:48;;;;;;;6.45;4.18;;;8.80;99.90;;;;;;4164061;28;20036;-66
2022/01/04 08:03:49;;;;;;;7.03;4.55;;;8.80;99.90;;;;;;4145875;28;20037;-67
2022/01/04 08:05:53;;;;;;;8.15;4.78;;;8.80;99.90;;;;;;4164878;28;20400;-67
2022/01/04 08:07:54;;;;;;;6.20;4.43;;;8.80;99.90;;;;;;4162301;28;20058;-67
2022/01/04 08:09:58;;;;;;;7.82;4.75;;;8.90;99.90;;;;;;4165451;28;20401;-67
2022/01/04 08:11:59;;;;;;;7.47;5.45;;;8.80;99.90;;;;;;4149903;28;20042;-67
2022/01/04 08:14:00;;;;;;;7.95;5.50;;;8.80;99.90;;;;;;4147950;28;20037;-66
2022/01/04 08:16:07;;;;;;;7.53;5.45;;;8.80;99.90;;;;;;4161704;28;20049;-67
2022/01/04 08:18:25;;;;;;;7.53;5.07;;;8.80;99.90;;;;;;4166365;28;20132;-67
2022/01/04 08:20:26;;;;;;;8.38;5.13;;;8.90;99.90;;;;;;4162754;28;20046;-67
2022/01/04 08:22:32;;;;;;;6.95;4.97;;;8.80;99.90;;;;;;4167996;28;20115;-68
2022/01/04 08:24:33;;;;;;;6.80;5.07;;;8.80;99.90;;;;;;4164365;28;20463;-66
2022/01/04 08:26:36;;;;;;;7.75;5.05;;;8.80;99.90;;;;;;4164643;28;20068;-67
2022/01/04 08:28:36;;;;;;;7.97;5.35;;;8.80;99.90;;;;;;4164289;28;20068;-67
2022/01/04 08:30:38;;;;;;;7.47;5.13;;;8.80;99.90;;;;;;4147897;28;20045;-67
2022/01/04 08:32:40;;;;;;;8.10;5.32;;;8.80;99.90;;;;;;4164584;28;20040;-67
2022/01/04 08:34:41;;;;;;;12.75;6.53;;;8.80;99.90;;;;;;4165673;28;20047;-67
2022/01/04 08:36:42;;;;;;;7.45;5.50;;;8.80;99.90;;;;;;4149409;28;20247;-67
2022/01/04 08:38:43;;;;;;;6.85;5.40;;;8.80;99.90;;;;;;4163420;28;20033;-67
2022/01/04 08:40:44;;;;;;;8.90;5.82;;;8.80;99.90;;;;;;4164959;28;21206;-67
2022/01/04 08:42:45;;;;;;;7.78;5.57;;;8.80;99.90;;;;;;4149273;28;20045;-67
2022/01/04 08:44:46;;;;;;;9.05;5.85;;;8.80;99.90;;;;;;4166364;28;20029;-67
2022/01/04 08:46:50;;;;;;;7.85;5.75;;;8.80;99.90;;;;;;4138175;28;20037;-67
2022/01/04 08:48:52;;;;;;;7.97;5.57;;;8.90;99.90;;;;;;4164704;28;20046;-68
2022/01/04 08:50:53;;;;;;;8.40;5.78;;;8.90;99.90;;;;;;4165058;28;20071;-67
2022/01/04 08:52:55;;;;;;;7.78;5.38;;;8.90;99.90;;;;;;4162614;28;20033;-68
2022/01/04 08:54:56;;;;;;;10.05;6.80;;;8.90;99.90;;;;;;4149029;28;20053;-67
2022/01/04 08:56:57;;;;;;;8.45;6.18;;;8.90;99.90;;;;;;4164141;28;20036;-67
2022/01/04 08:58:59;;;;;;;6.78;5.10;;;9.00;99.90;;;;;;4165699;28;20480;-67
2022/01/04 09:01:03;;;;;;;7.45;5.25;;;8.90;99.90;;;;;;4155513;28;20059;-67
2022/01/04 09:03:06;;;;;;;8.50;5.75;;;9.00;99.90;;;;;;4155989;28;20045;-67
2022/01/04 09:05:14;;;;;;;8.52;5.72;;;9.00;99.90;;;;;;4152114;28;20578;-68
2022/01/04 09:07:25;;;;;;;9.23;6.25;;;8.90;99.90;;;;;;4166165;28;20053;-67
2022/01/04 09:09:26;;;;;;;10.10;6.82;;;8.90;99.90;;;;;;4154362;28;20503;-67
2022/01/04 09:11:27;;;;;;;8.18;6.25;;;8.90;99.90;;;;;;4169443;28;20041;-68
2022/01/04 09:13:35;;;;;;;8.93;5.45;;;8.90;99.90;;;;;;4157811;28;20530;-67
2022/01/04 09:20:01;;;;;;;10.85;5.88;;;8.90;99.90;;;;;;4164825;28;20389;-67
2022/01/04 09:22:03;;;;;;;7.55;5.53;;;8.90;99.90;;;;;;4156582;28;20046;-67
2022/01/04 09:24:05;;;;;;;9.27;7.03;;;8.90;99.90;;;;;;4168795;28;20065;-67
2022/01/04 09:26:06;;;;;;;10.02;6.43;;;8.90;99.90;;;;;;4148254;28;20044;-68
2022/01/04 09:28:08;;;;;;;11.00;6.57;;;8.90;99.90;;;;;;4167981;28;20096;-67
2022/01/04 09:30:13;;;;;;;10.25;6.53;;;9.00;99.90;;;;;;4165736;28;20053;-68
2022/01/04 09:32:16;;;;;;;10.25;6.97;;;9.00;99.90;;;;;;4166916;28;20392;-67
2022/01/04 09:34:18;;;;;;;11.48;6.97;;;9.00;99.90;;;;;;4147436;28;20033;-67
2022/01/04 09:36:19;;;;;;;10.70;6.85;;;9.00;99.90;;;;;;4147153;28;20521;-68
2022/01/04 09:38:25;;;;;;;10.23;6.40;;;9.00;99.90;;;;;;4156760;28;20038;-67
2022/01/04 09:40:29;;;;;;;11.15;6.75;;;9.00;99.90;;;;;;4165762;28;20163;-68
2022/01/04 09:42:31;;;;;;;11.13;7.20;;;9.00;99.90;;;;;;4165277;28;20107;-67
2022/01/04 09:44:38;;;;;;;9.35;6.40;;;9.00;99.90;;;;;;4161726;28;20395;-67
2022/01/04 09:46:42;;;;;;;10.50;7.30;;;9.00;99.90;;;;;;4164182;28;20037;-67
2022/01/04 09:48:43;;;;;;;11.88;7.63;;;9.00;99.90;;;;;;4164553;28;20412;-67
2022/01/04 09:50:46;;;;;;;12.55;6.80;;;9.00;99.90;;;;;;4155186;28;20033;-68
2022/01/04 09:52:47;;;;;;;;;;;9.00;99.90;;;;;;4165731;28;20033;-68
2022/01/04 09:54:53;;;;;;;9.68;6.72;;;9.00;99.90;;;;;;4150274;28;19917;-67
2022/01/04 09:56:54;;;;;;;13.32;7.95;;;9.00;99.90;;;;;;4165182;28;20084;-69
2022/01/04 09:58:55;;;;;;;12.93;7.60;;;9.00;99.90;;;;;;4150996;28;20573;-67
2022/01/04 10:00:56;;;;;;;8.00;6.13;;;9.00;99.90;;;;;;4169548;28;20365;-68
2022/01/04 10:03:18;;;;;;;12.70;6.80;;;9.00;99.90;;;;;;4167658;28;20037;-67
2022/01/04 10:05:22;;;;;;;8.93;6.63;;;9.00;99.90;;;;;;4145982;28;20049;-68
2022/01/04 10:07:23;;;;;;;11.43;7.43;;;8.90;99.90;;;;;;4160863;28;20132;-68
2022/01/04 10:09:37;;;;;;;10.85;6.78;;;8.90;99.90;;;;;;4165888;28;20530;-67
2022/01/04 10:11:47;;;;;;;12.95;6.82;;;8.90;99.90;;;;;;4163776;28;20072;-68
2022/01/04 10:13:51;;;;;;;9.90;6.57;;;8.90;99.90;;;;;;4146045;28;20037;-67
2022/01/04 10:15:52;;;;;;;11.05;7.00;;;8.90;99.90;;;;;;4151125;28;21018;-67
2022/01/04 10:17:55;;;;;;;9.98;5.75;;;9.00;99.90;;;;;;4164569;28;20188;-68
2022/01/04 10:19:59;;;;;;;8.77;6.00;;;9.00;99.90;;;;;;4165610;28;20501;-67
2022/01/04 10:22:10;;;;;;;11.20;5.70;;;9.00;99.90;;;;;;4165813;28;20096;-68
2022/01/04 10:24:11;;;;;;;9.23;5.93;;;9.00;99.90;;;;;;4166517;28;20121;-67
2022/01/04 10:26:12;;;;;;;8.38;5.68;;;8.90;99.90;;;;;;4163341;28;20072;-68
2022/01/04 10:28:45;;;;;;;7.53;4.82;;;9.00;99.90;;;;;;4163610;28;20040;-68
2022/01/04 10:30:46;;;;;;;8.80;6.28;;;9.00;99.90;;;;;;4148759;28;20068;-68
2022/01/04 10:33:05;;;;;;;9.65;5.28;;;9.00;99.90;;;;;;4167788;28;20045;-68
2022/01/04 10:35:06;;;;;;;7.78;4.70;;;9.00;99.90;;;;;;4158569;28;20034;-68
2022/01/04 10:37:27;;;;;;;10.65;5.45;;;9.00;99.90;;;;;;4166834;28;20146;-68
2022/01/04 10:39:28;;;;;;;7.47;4.88;;;9.00;99.90;;;;;;4152593;28;20029;-67
2022/01/04 10:41:32;;;;;;;8.45;5.07;;;9.10;99.90;;;;;;4165493;28;20069;-68
2022/01/04 10:43:36;;;;;;;7.07;4.85;;;9.00;99.90;;;;;;4168635;28;20112;-67
2022/01/04 10:45:39;;;;;;;8.18;5.15;;;9.10;99.90;;;;;;4170667;28;20045;-67
2022/01/04 10:47:40;;;;;;;8.90;5.05;;;9.10;99.90;;;;;;4166402;28;20037;-68
2022/01/04 10:49:42;;;;;;;6.68;4.72;;;9.10;99.90;;;;;;4153681;28;20054;-67
2022/01/04 10:51:44;;;;;;;5.50;4.18;;;9.10;99.90;;;;;;4142837;28;20050;-68
2022/01/04 10:53:49;;;;;;;5.95;4.10;;;9.10;99.90;;;;;;4166402;28;20037;-68